Time;durP1;ratioP1;P1;durP2;ratioP2;P2;SDS_P1;SDS_P2;PMS_P1;PMS_P2;Temp;Humidity;BMP_temperature;BMP_pressure;BME280_temperature;BME280_humidity;BME280_pressure;Samples;Min_cycle;Max_cycle;Signal;HPM_P1;HPM_P2
2022/06/24 00:00:14;;;;;;;2.85;0.90;;;15.90;99.90;;;;;;5040827;28;20045;-82
2022/06/24 00:02:46;;;;;;;0.93;0.63;;;16.00;99.90;;;;;;5031440;28;20179;-77
2022/06/24 00:05:14;;;;;;;1.35;1.08;;;15.90;99.80;;;;;;5032222;28;20048;-83
2022/06/24 00:07:52;;;;;;;2.28;1.70;;;16.10;99.90;;;;;;5037771;28;20049;-81
2022/06/24 00:10:21;;;;;;;1.00;0.55;;;16.50;99.40;;;;;;5057427;28;20474;-81
2022/06/24 00:12:51;;;;;;;2.10;0.70;;;16.70;98.40;;;;;;5048915;28;20111;-84
2022/06/24 00:15:25;;;;;;;1.85;0.93;;;16.60;98.50;;;;;;5047941;28;20070;-82
2022/06/24 00:17:53;;;;;;;1.30;0.90;;;16.60;98.90;;;;;;5036283;28;20052;-84
2022/06/24 00:20:22;;;;;;;1.90;0.55;;;16.60;98.20;;;;;;5044656;28;20391;-85
2022/06/24 00:22:51;;;;;;;1.30;0.90;;;17.00;98.70;;;;;;5059041;28;20024;-86
2022/06/24 00:25:20;;;;;;;1.67;0.60;;;17.30;98.20;;;;;;5050961;28;20037;-82
2022/06/24 00:28:04;;;;;;;2.95;0.77;;;17.60;97.60;;;;;;5046342;28;20139;-83
2022/06/24 00:30:50;;;;;;;1.55;0.68;;;17.70;96.80;;;;;;5035522;28;20028;-83
2022/06/24 00:33:20;;;;;;;0.93;0.40;;;17.70;96.80;;;;;;5041175;28;20037;-80
2022/06/24 00:35:52;;;;;;;0.90;0.57;;;17.70;97.40;;;;;;5058924;28;20078;-80
2022/06/24 00:38:31;;;;;;;0.52;0.40;;;17.90;97.50;;;;;;5051516;28;20040;-84
2022/06/24 00:41:06;;;;;;;2.80;0.60;;;18.10;96.70;;;;;;5052599;28;20604;-80
2022/06/24 00:43:36;;;;;;;1.27;0.45;;;18.40;95.60;;;;;;5041491;28;20439;-79
2022/06/24 00:46:11;;;;;;;2.67;1.45;;;18.30;95.90;;;;;;5047121;28;20029;-79
2022/06/24 00:48:46;;;;;;;0.90;0.63;;;18.30;96.10;;;;;;5052850;28;20025;-79
2022/06/24 00:51:14;;;;;;;2.40;0.50;;;18.30;95.80;;;;;;5043257;28;20498;-79
2022/06/24 00:53:48;;;;;;;1.23;0.65;;;18.50;96.00;;;;;;5047121;28;20134;-78
2022/06/24 00:56:19;;;;;;;0.95;0.60;;;18.70;95.40;;;;;;5034867;28;20668;-78
2022/06/24 00:58:58;;;;;;;0.93;0.80;;;18.80;96.10;;;;;;5058957;28;20036;-77
2022/06/24 01:01:35;;;;;;;0.93;0.40;;;19.00;95.40;;;;;;5049644;28;20021;-78
2022/06/24 01:04:04;;;;;;;2.38;1.08;;;19.10;95.80;;;;;;5060422;28;20021;-79
2022/06/24 01:06:32;;;;;;;0.65;0.50;;;19.10;95.30;;;;;;5045537;28;20036;-76
2022/06/24 01:08:59;;;;;;;0.98;0.60;;;19.10;95.30;;;;;;5046065;28;20464;-76
2022/06/24 01:11:40;;;;;;;2.05;0.70;;;19.30;94.30;;;;;;5043595;28;20134;-76
2022/06/24 01:14:07;;;;;;;1.17;0.73;;;19.40;94.50;;;;;;5035255;28;20075;-82
2022/06/24 01:16:37;;;;;;;1.42;0.60;;;19.40;94.80;;;;;;5034829;28;20032;-76
2022/06/24 01:19:12;;;;;;;1.38;0.65;;;19.50;93.70;;;;;;5025547;28;20037;-77
2022/06/24 01:21:44;;;;;;;1.33;1.23;;;19.70;94.00;;;;;;5039430;28;20186;-74
2022/06/24 01:24:22;;;;;;;0.90;0.55;;;19.70;93.50;;;;;;5032927;28;20032;-76
2022/06/24 01:26:52;;;;;;;1.65;0.52;;;19.70;93.90;;;;;;5044184;28;21017;-77
2022/06/24 01:29:23;;;;;;;1.98;0.77;;;19.90;93.70;;;;;;5040964;28;20094;-77
2022/06/24 01:31:53;;;;;;;1.27;0.70;;;20.00;93.70;;;;;;5048386;28;20043;-83
2022/06/24 01:34:23;;;;;;;1.63;1.35;;;20.40;93.30;;;;;;5052518;28;20090;-79
2022/06/24 01:36:53;;;;;;;2.08;1.10;;;20.50;92.20;;;;;;5035201;28;20054;-78
2022/06/24 01:39:21;;;;;;;7.65;1.30;;;20.50;92.80;;;;;;5034944;28;20029;-76
2022/06/24 01:41:49;;;;;;;1.85;1.00;;;20.60;92.40;;;;;;5043726;28;20056;-76
2022/06/24 01:44:17;;;;;;;1.55;1.08;;;20.50;92.40;;;;;;5046870;28;20104;-78
2022/06/24 01:46:45;;;;;;;1.90;1.38;;;20.10;92.60;;;;;;5038928;28;20125;-75
2022/06/24 01:49:12;;;;;;;2.78;1.25;;;19.80;92.90;;;;;;5037336;28;20502;-77
2022/06/24 01:51:41;;;;;;;1.25;0.82;;;19.80;92.60;;;;;;5035562;28;20057;-78
2022/06/24 01:54:09;;;;;;;2.67;0.80;;;19.40;92.00;;;;;;5035454;28;20022;-78
2022/06/24 01:56:36;;;;;;;2.35;1.13;;;19.10;92.40;;;;;;5042763;28;20021;-77
2022/06/24 01:59:04;;;;;;;1.40;0.77;;;19.00;92.80;;;;;;5049095;28;20041;-77
2022/06/24 02:01:31;;;;;;;0.88;0.63;;;18.70;92.70;;;;;;5046914;28;20017;-80
2022/06/24 02:03:59;;;;;;;2.70;0.43;;;18.70;93.10;;;;;;5035194;28;20374;-80
2022/06/24 02:06:26;;;;;;;1.08;0.50;;;18.70;93.10;;;;;;5040349;28;20112;-78
2022/06/24 02:08:55;;;;;;;1.35;0.60;;;18.70;92.60;;;;;;5031105;28;20018;-78
2022/06/24 02:14:12;;;;;;;2.30;0.88;;;19.30;92.40;;;;;;5035982;28;20079;-78
2022/06/24 02:16:42;;;;;;;1.70;0.80;;;19.50;91.80;;;;;;5043055;28;20382;-78
2022/06/24 02:19:10;;;;;;;3.22;0.65;;;19.90;91.50;;;;;;5043615;28;20116;-80
2022/06/24 02:21:38;;;;;;;1.80;0.80;;;20.10;91.00;;;;;;5041851;28;20052;-78
2022/06/24 02:24:06;;;;;;;1.65;0.70;;;19.80;91.50;;;;;;5038441;28;20032;-77
2022/06/24 02:26:34;;;;;;;4.30;1.13;;;20.30;92.10;;;;;;5030081;28;20325;-79
2022/06/24 02:29:01;;;;;;;1.33;0.77;;;20.80;92.00;;;;;;5042700;28;20037;-80
2022/06/24 02:31:28;;;;;;;1.63;1.00;;;21.00;91.00;;;;;;5052279;28;20033;-84
2022/06/24 02:33:56;;;;;;;1.42;0.77;;;20.90;90.60;;;;;;5056666;28;20225;-78
2022/06/24 02:36:24;;;;;;;2.00;1.02;;;21.00;90.90;;;;;;5055366;28;20177;-79
2022/06/24 02:38:51;;;;;;;2.00;0.80;;;21.20;90.30;;;;;;5030941;28;20372;-79
2022/06/24 02:41:19;;;;;;;3.80;0.70;;;21.30;90.40;;;;;;5029274;28;20038;-83
2022/06/24 02:43:46;;;;;;;1.27;0.80;;;21.20;90.90;;;;;;5034636;28;20040;-78
2022/06/24 02:46:16;;;;;;;2.10;1.10;;;21.00;91.10;;;;;;5033469;28;20044;-77
2022/06/24 02:48:44;;;;;;;2.53;0.98;;;20.70;91.30;;;;;;5035489;28;20032;-78
2022/06/24 02:51:13;;;;;;;2.63;0.63;;;20.30;91.70;;;;;;5046017;28;20031;-78
2022/06/24 02:53:43;;;;;;;1.13;0.60;;;19.90;91.30;;;;;;5050086;28;20071;-80
2022/06/24 02:56:13;;;;;;;2.50;0.47;;;19.70;91.70;;;;;;5049293;28;20041;-79
2022/06/24 02:58:42;;;;;;;1.42;0.80;;;19.50;91.70;;;;;;5031345;28;20588;-80
2022/06/24 03:01:10;;;;;;;0.85;0.55;;;19.50;91.90;;;;;;5049007;28;20058;-80
2022/06/24 03:03:38;;;;;;;1.08;0.70;;;19.60;92.20;;;;;;5040910;28;20065;-78
2022/06/24 03:06:05;;;;;;;2.60;0.50;;;20.20;91.70;;;;;;5043862;28;20164;-77
2022/06/24 03:08:33;;;;;;;1.25;0.50;;;20.30;91.80;;;;;;5036729;28;20024;-76
2022/06/24 03:11:01;;;;;;;1.05;0.50;;;20.20;91.30;;;;;;5060489;28;20025;-77
2022/06/24 03:13:29;;;;;;;1.38;0.47;;;20.00;91.10;;;;;;5048225;28;20343;-78
2022/06/24 03:15:57;;;;;;;1.33;0.38;;;19.80;91.50;;;;;;5047447;28;20449;-81
2022/06/24 03:18:24;;;;;;;0.95;0.57;;;19.70;91.50;;;;;;5040262;28;20028;-79
2022/06/24 03:20:52;;;;;;;2.17;0.82;;;19.60;91.90;;;;;;5045257;28;20090;-81
2022/06/24 03:23:19;;;;;;;2.28;0.60;;;19.40;91.60;;;;;;5033219;28;20032;-83
2022/06/24 03:25:47;;;;;;;1.42;0.60;;;19.20;91.90;;;;;;5028308;28;20357;-77
2022/06/24 03:28:15;;;;;;;1.45;0.47;;;19.10;91.90;;;;;;5040444;28;21385;-75
2022/06/24 03:30:42;;;;;;;1.20;0.38;;;19.10;92.60;;;;;;5034197;28;20031;-76
2022/06/24 03:33:10;;;;;;;2.55;0.60;;;19.00;92.00;;;;;;5042918;28;20065;-78
2022/06/24 03:35:37;;;;;;;1.98;0.70;;;18.90;92.20;;;;;;5049547;28;20032;-77
2022/06/24 03:38:05;;;;;;;0.90;0.40;;;18.90;92.50;;;;;;5044266;28;20060;-75
2022/06/24 03:40:32;;;;;;;1.55;0.40;;;19.00;92.50;;;;;;5028633;28;20041;-76
2022/06/24 03:42:59;;;;;;;2.30;0.52;;;19.00;92.40;;;;;;5043371;28;20032;-77
2022/06/24 03:45:27;;;;;;;0.63;0.25;;;19.00;92.10;;;;;;5048122;28;20032;-75
2022/06/24 03:47:54;;;;;;;1.50;0.50;;;18.90;91.90;;;;;;5037195;28;20298;-75
2022/06/24 03:50:22;;;;;;;2.10;0.30;;;18.90;91.90;;;;;;5049974;28;20029;-77
2022/06/24 03:52:49;;;;;;;0.10;0.10;;;18.80;91.90;;;;;;5045925;28;20108;-77
2022/06/24 03:55:16;;;;;;;0.52;0.20;;;18.90;91.50;;;;;;5066534;28;20040;-76
2022/06/24 03:57:44;;;;;;;0.30;0.13;;;18.80;91.50;;;;;;5050798;28;20051;-75
2022/06/24 04:00:12;;;;;;;0.35;0.22;;;18.80;91.10;;;;;;5044889;28;20051;-75
2022/06/24 04:02:40;;;;;;;3.63;0.20;;;18.80;91.20;;;;;;5050547;28;20119;-77
2022/06/24 04:05:09;;;;;;;1.48;0.20;;;18.70;91.10;;;;;;5047041;28;20028;-79
2022/06/24 04:07:37;;;;;;;1.40;0.40;;;18.70;91.50;;;;;;5033870;28;21372;-77
2022/06/24 04:10:05;;;;;;;2.72;0.73;;;18.60;92.20;;;;;;5045894;28;20032;-81
2022/06/24 04:12:33;;;;;;;1.02;0.70;;;18.60;92.00;;;;;;5041232;28;20048;-78
2022/06/24 04:15:17;;;;;;;0.70;0.30;;;18.50;91.60;;;;;;5037484;28;20108;-78
2022/06/24 04:17:49;;;;;;;1.58;0.45;;;18.50;91.90;;;;;;5039257;28;20179;-76
2022/06/24 04:20:18;;;;;;;1.75;0.40;;;18.40;92.30;;;;;;5032559;28;20120;-76
2022/06/24 04:22:46;;;;;;;1.70;0.25;;;18.40;92.10;;;;;;5031293;28;20037;-76
2022/06/24 04:25:13;;;;;;;0.43;0.15;;;18.40;92.30;;;;;;5033192;28;20086;-78
2022/06/24 04:27:41;;;;;;;2.05;0.20;;;18.30;92.10;;;;;;5039010;28;20071;-76
2022/06/24 04:30:11;;;;;;;0.68;0.50;;;18.30;91.80;;;;;;5036957;28;20570;-77
2022/06/24 04:32:39;;;;;;;1.38;0.20;;;18.30;92.10;;;;;;5039394;28;20487;-78
2022/06/24 04:35:08;;;;;;;0.65;0.20;;;18.30;92.20;;;;;;5036926;28;20492;-74
2022/06/24 04:37:39;;;;;;;2.03;0.35;;;18.20;92.30;;;;;;5036026;28;20409;-76
2022/06/24 04:40:09;;;;;;;0.85;0.35;;;18.20;91.90;;;;;;5038972;28;20115;-75
2022/06/24 04:42:36;;;;;;;0.30;0.22;;;18.20;91.20;;;;;;5046821;28;20369;-74
2022/06/24 04:45:05;;;;;;;0.38;0.20;;;18.20;91.10;;;;;;5064784;28;20093;-79
2022/06/24 04:47:33;;;;;;;0.95;0.40;;;18.30;91.30;;;;;;5046142;28;20102;-80
2022/06/24 04:50:00;;;;;;;0.20;0.17;;;18.30;91.10;;;;;;5044633;28;20078;-76
2022/06/24 04:52:28;;;;;;;0.95;0.20;;;18.30;91.10;;;;;;5056136;28;20052;-76
2022/06/24 04:54:55;;;;;;;0.50;0.30;;;18.20;91.50;;;;;;5048535;28;20182;-75
2022/06/24 04:57:22;;;;;;;1.30;0.25;;;18.20;91.50;;;;;;5048584;28;20127;-75
2022/06/24 04:59:50;;;;;;;0.30;0.10;;;18.20;91.30;;;;;;5061208;28;20083;-75
2022/06/24 05:02:17;;;;;;;1.95;0.20;;;18.20;91.70;;;;;;5053086;28;20120;-74
2022/06/24 05:04:44;;;;;;;0.65;0.20;;;18.20;91.70;;;;;;5046552;28;20029;-74
2022/06/24 05:07:12;;;;;;;0.28;0.20;;;18.20;91.60;;;;;;5038039;28;20041;-74
2022/06/24 05:09:39;;;;;;;0.38;0.17;;;18.20;92.00;;;;;;5055765;28;20029;-76
2022/06/24 05:12:07;;;;;;;0.85;0.15;;;18.20;91.60;;;;;;5039409;28;20021;-78
2022/06/24 05:14:34;;;;;;;0.43;0.20;;;18.30;91.50;;;;;;5034630;28;20040;-73
2022/06/24 05:17:01;;;;;;;0.13;0.10;;;18.40;91.50;;;;;;5031960;28;20049;-75
2022/06/24 05:19:29;;;;;;;1.95;0.10;;;18.40;91.70;;;;;;5028090;28;20037;-73
2022/06/24 05:21:57;;;;;;;0.65;0.20;;;18.40;91.60;;;;;;5038360;28;20455;-74
2022/06/24 05:24:24;;;;;;;0.65;0.50;;;18.30;91.90;;;;;;5032853;28;20041;-76
2022/06/24 05:26:52;;;;;;;1.08;0.30;;;18.30;92.00;;;;;;5035680;28;20099;-74
2022/06/24 05:29:19;;;;;;;0.20;0.10;;;18.30;91.70;;;;;;5032442;28;20464;-71
2022/06/24 05:31:46;;;;;;;0.90;0.40;;;18.30;91.50;;;;;;5030118;28;20469;-74
2022/06/24 05:34:14;;;;;;;2.15;0.20;;;18.30;91.40;;;;;;5034757;28;20029;-76
2022/06/24 05:36:43;;;;;;;1.75;0.20;;;18.30;91.10;;;;;;5027964;28;20136;-77
2022/06/24 05:39:10;;;;;;;0.60;0.20;;;18.20;91.50;;;;;;5020239;28;20048;-78
2022/06/24 05:41:40;;;;;;;1.25;0.50;;;18.20;91.50;;;;;;5038846;28;20482;-85
2022/06/24 05:44:08;;;;;;;0.55;0.20;;;18.20;91.50;;;;;;5031886;28;20037;-81
2022/06/24 05:46:36;;;;;;;0.35;0.20;;;18.10;91.80;;;;;;5034314;28;20113;-77
2022/06/24 05:49:03;;;;;;;2.65;0.63;;;18.10;91.90;;;;;;5034386;28;20486;-80
2022/06/24 05:51:34;;;;;;;0.47;0.17;;;18.00;92.40;;;;;;5036422;28;20045;-82
2022/06/24 05:56:47;;;;;;;0.98;0.20;;;18.00;92.80;;;;;;5056758;28;20027;-78
2022/06/24 05:59:15;;;;;;;1.00;0.20;;;18.00;92.60;;;;;;5044957;28;20405;-83
2022/06/24 06:01:43;;;;;;;0.95;0.20;;;18.00;92.50;;;;;;5037678;28;20533;-83
2022/06/24 06:04:10;;;;;;;0.38;0.20;;;18.00;92.70;;;;;;5050921;28;20033;-82
2022/06/24 06:06:38;;;;;;;0.40;0.30;;;17.90;92.50;;;;;;5044488;28;20733;-82
2022/06/24 06:09:05;;;;;;;1.98;0.20;;;17.90;92.60;;;;;;5054457;28;20025;-82
2022/06/24 06:11:33;;;;;;;3.13;0.60;;;17.80;92.70;;;;;;5047303;28;20040;-83
2022/06/24 06:14:00;;;;;;;3.00;0.47;;;17.80;92.90;;;;;;5052534;28;20036;-83
2022/06/24 06:16:28;;;;;;;0.57;0.30;;;17.80;92.80;;;;;;5046179;28;20528;-83
2022/06/24 06:18:56;;;;;;;0.65;0.45;;;17.90;92.70;;;;;;5033451;28;20167;-84
2022/06/24 06:21:23;;;;;;;2.45;0.50;;;18.00;92.30;;;;;;5031462;28;20271;-77
2022/06/24 06:23:51;;;;;;;0.65;0.40;;;18.10;92.50;;;;;;5030806;28;20053;-82
2022/06/24 06:26:18;;;;;;;0.85;0.38;;;18.10;92.50;;;;;;5039480;28;20410;-81
2022/06/24 06:28:46;;;;;;;4.90;0.90;;;18.10;92.60;;;;;;5037294;28;20067;-79
2022/06/24 06:31:13;;;;;;;0.70;0.40;;;18.00;92.60;;;;;;5041388;28;20536;-79
2022/06/24 06:33:41;;;;;;;1.83;0.52;;;17.90;92.50;;;;;;5041689;28;20060;-78
2022/06/24 06:36:10;;;;;;;2.20;0.43;;;17.80;92.60;;;;;;5040174;28;20036;-80
2022/06/24 06:38:39;;;;;;;1.23;0.50;;;17.70;92.70;;;;;;5052805;28;20492;-80
2022/06/24 06:41:06;;;;;;;0.85;0.50;;;17.60;92.80;;;;;;5057323;28;20037;-78
2022/06/24 06:43:34;;;;;;;2.15;0.93;;;17.40;92.90;;;;;;5052910;28;20019;-79
2022/06/24 06:46:02;;;;;;;0.65;0.40;;;17.30;93.10;;;;;;5053369;28;20035;-78
2022/06/24 06:48:29;;;;;;;2.10;0.55;;;17.20;93.20;;;;;;5049569;28;20037;-80
2022/06/24 06:50:58;;;;;;;4.47;0.60;;;17.10;93.30;;;;;;5038829;28;20048;-79
2022/06/24 06:53:27;;;;;;;0.85;0.40;;;16.90;93.40;;;;;;5035455;28;20062;-81
2022/06/24 06:55:55;;;;;;;0.90;0.40;;;16.90;93.50;;;;;;5029969;28;20025;-78
2022/06/24 06:58:23;;;;;;;1.85;1.17;;;16.70;93.50;;;;;;5042271;28;20033;-79
2022/06/24 07:00:51;;;;;;;2.15;0.60;;;16.60;93.40;;;;;;5027995;28;20041;-81
2022/06/24 07:03:19;;;;;;;1.17;0.30;;;16.60;93.30;;;;;;5031150;28;20025;-80
2022/06/24 07:05:46;;;;;;;2.50;0.70;;;16.70;93.20;;;;;;5029828;28;20429;-81
2022/06/24 07:08:15;;;;;;;2.20;0.73;;;16.60;93.40;;;;;;5030938;28;20040;-78
2022/06/24 07:10:44;;;;;;;4.65;1.92;;;16.60;93.30;;;;;;5028991;28;20041;-79
2022/06/24 07:13:12;;;;;;;2.92;1.27;;;16.50;93.40;;;;;;5030656;28;20800;-79
2022/06/24 07:15:39;;;;;;;1.95;0.80;;;16.40;93.60;;;;;;5025201;28;20167;-78
2022/06/24 07:18:08;;;;;;;1.67;1.15;;;16.30;93.70;;;;;;5032193;28;20060;-79
2022/06/24 07:20:36;;;;;;;8.68;1.67;;;16.30;93.90;;;;;;5044809;28;20043;-80
2022/06/24 07:23:03;;;;;;;3.70;2.42;;;16.20;93.90;;;;;;5034095;28;20037;-80
2022/06/24 07:25:35;;;;;;;3.75;1.90;;;16.10;94.00;;;;;;5033388;28;20391;-77
2022/06/24 07:28:04;;;;;;;5.50;3.22;;;16.00;94.00;;;;;;5046184;28;20036;-80
2022/06/24 07:30:32;;;;;;;5.35;2.97;;;15.90;94.10;;;;;;5037897;28;20370;-80
2022/06/24 07:32:59;;;;;;;7.30;3.75;;;15.90;94.20;;;;;;5049453;28;20044;-78
2022/06/24 07:35:26;;;;;;;5.70;3.78;;;15.80;94.30;;;;;;5047377;28;20099;-80
2022/06/24 07:37:54;;;;;;;4.05;2.60;;;15.80;94.30;;;;;;5037688;28;20053;-77
2022/06/24 07:40:21;;;;;;;2.90;1.98;;;15.70;94.40;;;;;;5047510;28;20422;-79
2022/06/24 07:42:49;;;;;;;4.72;2.20;;;15.60;94.50;;;;;;5048129;28;20024;-76
2022/06/24 07:45:16;;;;;;;1.55;1.20;;;15.50;94.50;;;;;;5051519;28;20083;-78
2022/06/24 07:47:43;;;;;;;2.55;0.82;;;15.40;94.60;;;;;;5042749;28;20025;-77
2022/06/24 07:50:11;;;;;;;1.85;0.80;;;15.40;94.70;;;;;;5049813;28;20035;-76
2022/06/24 07:52:38;;;;;;;1.95;0.93;;;15.40;94.80;;;;;;5041533;28;20179;-77
2022/06/24 07:57:51;;;;;;;1.73;0.57;;;15.40;94.90;;;;;;5047098;28;20067;-78
2022/06/24 08:00:19;;;;;;;1.15;0.60;;;15.40;94.90;;;;;;5051706;28;20511;-78
2022/06/24 08:02:46;;;;;;;1.88;0.40;;;15.40;94.90;;;;;;5047654;28;20040;-78
2022/06/24 08:05:15;;;;;;;1.17;0.73;;;15.40;94.90;;;;;;5035345;28;20453;-79
2022/06/24 08:07:45;;;;;;;1.77;0.77;;;15.30;94.80;;;;;;5051422;28;20018;-78
2022/06/24 08:10:13;;;;;;;0.90;0.70;;;15.30;94.90;;;;;;5050803;28;20048;-78
2022/06/24 08:12:41;;;;;;;3.63;1.10;;;15.40;94.80;;;;;;5049239;28;20553;-77
2022/06/24 08:15:08;;;;;;;1.77;1.30;;;15.30;94.90;;;;;;5041118;28;20032;-77
2022/06/24 08:17:36;;;;;;;2.03;1.55;;;15.30;95.00;;;;;;5043571;28;20021;-77
2022/06/24 08:20:03;;;;;;;2.05;1.60;;;15.20;95.10;;;;;;5037651;28;20092;-78
2022/06/24 08:22:31;;;;;;;1.95;1.40;;;15.20;95.20;;;;;;5032724;28;20032;-78
2022/06/24 08:24:58;;;;;;;2.78;1.77;;;15.10;95.30;;;;;;5042268;28;20037;-78
2022/06/24 08:27:25;;;;;;;1.77;1.20;;;15.00;95.40;;;;;;5035552;28;20021;-80
2022/06/24 08:29:53;;;;;;;2.40;1.00;;;14.80;95.60;;;;;;5039088;28;20025;-79
2022/06/24 08:32:20;;;;;;;2.22;1.10;;;14.60;96.00;;;;;;5051234;28;20478;-79
2022/06/24 08:34:47;;;;;;;2.63;1.58;;;14.50;96.20;;;;;;5030906;28;20133;-78
2022/06/24 08:37:15;;;;;;;1.90;1.23;;;14.40;96.50;;;;;;5039626;28;20030;-78
2022/06/24 08:39:42;;;;;;;2.50;1.58;;;14.30;96.70;;;;;;5054689;28;20465;-77
2022/06/24 08:42:13;;;;;;;3.63;1.80;;;14.30;96.80;;;;;;5032750;28;20049;-78
2022/06/24 08:44:41;;;;;;;3.03;1.95;;;14.30;96.70;;;;;;5031932;28;20035;-78
2022/06/24 08:47:15;;;;;;;3.95;2.08;;;14.30;96.80;;;;;;5043821;28;20027;-77
2022/06/24 08:49:42;;;;;;;5.20;2.17;;;14.40;96.80;;;;;;5034630;28;20148;-79
2022/06/24 08:52:11;;;;;;;4.57;1.90;;;14.30;96.80;;;;;;5050429;28;20099;-78
2022/06/24 08:54:48;;;;;;;6.10;3.15;;;14.30;96.90;;;;;;5048672;28;20133;-77
2022/06/24 08:57:15;;;;;;;4.90;2.78;;;14.20;97.00;;;;;;5045518;28;20029;-76
2022/06/24 08:59:46;;;;;;;5.68;2.35;;;14.10;97.10;;;;;;5049187;28;20425;-78
2022/06/24 09:02:18;;;;;;;5.35;3.65;;;14.00;97.20;;;;;;5031842;28;20030;-79
2022/06/24 09:04:48;;;;;;;7.38;4.00;;;14.00;97.20;;;;;;5042187;28;20442;-77
2022/06/24 09:07:25;;;;;;;4.82;3.38;;;14.00;97.20;;;;;;5045182;28;20036;-77
2022/06/24 09:10:06;;;;;;;4.97;3.33;;;14.00;97.20;;;;;;5052089;28;20021;-79
2022/06/24 09:12:45;;;;;;;5.13;2.90;;;14.00;97.20;;;;;;5048207;28;20395;-75
2022/06/24 09:15:14;;;;;;;3.90;3.20;;;14.00;97.30;;;;;;5059497;28;20380;-78
2022/06/24 09:17:43;;;;;;;5.85;3.03;;;14.00;97.30;;;;;;5042854;28;20041;-77
2022/06/24 09:20:14;;;;;;;5.80;2.55;;;13.90;97.50;;;;;;5038506;28;20048;-77
2022/06/24 09:22:42;;;;;;;3.55;2.25;;;13.80;97.50;;;;;;5038947;28;20057;-78
2022/06/24 09:25:09;;;;;;;3.83;1.63;;;13.70;97.80;;;;;;5032837;28;20041;-76
2022/06/24 09:27:44;;;;;;;2.22;1.33;;;13.50;97.90;;;;;;5046629;28;20371;-78
2022/06/24 09:30:13;;;;;;;1.95;1.27;;;13.40;98.20;;;;;;5057813;28;20025;-78
2022/06/24 09:32:54;;;;;;;3.70;1.88;;;13.20;98.50;;;;;;5046647;28;20037;-79
2022/06/24 09:35:22;;;;;;;3.50;2.22;;;13.00;98.70;;;;;;5041946;28;20071;-78
2022/06/24 09:37:52;;;;;;;5.70;1.90;;;12.80;99.10;;;;;;5047480;28;20045;-78
2022/06/24 09:40:27;;;;;;;3.95;2.42;;;12.70;99.50;;;;;;5040474;28;20067;-79
2022/06/24 09:43:06;;;;;;;6.18;3.15;;;12.60;99.70;;;;;;5046396;28;20023;-79
2022/06/24 09:45:51;;;;;;;6.50;3.50;;;12.40;99.90;;;;;;5034225;28;20057;-78
2022/06/24 09:48:34;;;;;;;7.50;5.22;;;12.30;99.90;;;;;;5049632;28;20482;-77
2022/06/24 09:51:03;;;;;;;9.70;5.53;;;12.20;99.90;;;;;;5033008;28;20114;-77
2022/06/24 09:53:35;;;;;;;10.63;4.35;;;12.20;99.90;;;;;;5050611;28;20513;-78
2022/06/24 09:56:03;;;;;;;3.65;2.40;;;12.20;99.90;;;;;;5031343;28;20047;-78
2022/06/24 09:58:31;;;;;;;3.78;1.70;;;12.30;99.90;;;;;;5036867;28;20044;-78
2022/06/24 10:00:58;;;;;;;7.55;1.90;;;12.40;99.90;;;;;;5041109;28;20044;-77
2022/06/24 10:03:27;;;;;;;3.85;2.15;;;12.60;99.90;;;;;;5049890;28;20021;-78
2022/06/24 10:06:02;;;;;;;7.30;2.40;;;12.70;99.80;;;;;;5036819;28;20486;-78
2022/06/24 10:08:35;;;;;;;2.50;1.63;;;12.80;99.30;;;;;;5031849;28;20418;-79
2022/06/24 10:11:09;;;;;;;2.63;1.55;;;12.90;99.00;;;;;;5036179;28;20351;-78
2022/06/24 10:13:37;;;;;;;2.88;1.67;;;13.00;98.70;;;;;;5039282;28;20025;-78
2022/06/24 10:16:08;;;;;;;2.92;1.05;;;13.20;98.40;;;;;;5036568;28;20036;-79
2022/06/24 10:18:39;;;;;;;1.48;1.00;;;13.30;98.10;;;;;;5029097;28;20026;-79
2022/06/24 10:21:12;;;;;;;3.03;0.73;;;13.40;98.00;;;;;;5034615;28;20465;-79
2022/06/24 10:23:43;;;;;;;2.15;0.90;;;13.40;97.90;;;;;;5031582;28;20033;-80
2022/06/24 10:26:10;;;;;;;2.47;0.80;;;13.50;97.80;;;;;;5058110;28;20029;-78
2022/06/24 10:29:00;;;;;;;0.98;0.68;;;13.60;97.60;;;;;;5044029;28;20757;-78
2022/06/24 10:31:49;;;;;;;0.68;0.50;;;13.60;97.60;;;;;;5037362;28;20161;-79
2022/06/24 10:34:25;;;;;;;3.20;0.70;;;13.60;97.60;;;;;;5047092;28;20037;-78
2022/06/24 10:37:09;;;;;;;1.33;0.50;;;13.50;97.70;;;;;;5035030;28;20486;-79
2022/06/24 10:39:51;;;;;;;1.33;0.73;;;13.40;97.80;;;;;;5062832;28;20040;-79
2022/06/24 10:42:21;;;;;;;1.33;0.60;;;13.40;97.90;;;;;;5052668;28;20112;-79
2022/06/24 10:44:55;;;;;;;2.60;1.13;;;13.30;98.10;;;;;;5048557;28;20702;-78
2022/06/24 10:47:27;;;;;;;1.50;1.08;;;13.20;98.20;;;;;;5040463;28;20088;-79
2022/06/24 10:49:54;;;;;;;1.40;1.08;;;13.10;98.40;;;;;;5029584;28;20375;-77
2022/06/24 10:52:32;;;;;;;2.83;1.02;;;13.00;98.60;;;;;;5043773;28;20053;-77
2022/06/24 10:55:18;;;;;;;2.15;1.00;;;12.90;98.60;;;;;;5052458;28;20087;-80
2022/06/24 10:57:54;;;;;;;2.85;1.05;;;12.80;98.70;;;;;;5053984;28;20112;-78
2022/06/24 11:00:40;;;;;;;2.10;1.63;;;12.80;98.80;;;;;;5032918;28;20073;-77
2022/06/24 11:03:07;;;;;;;1.75;1.15;;;12.80;98.90;;;;;;5049079;28;20029;-81
2022/06/24 11:05:41;;;;;;;3.03;1.20;;;12.70;98.90;;;;;;5053291;28;20104;-77
2022/06/24 11:08:24;;;;;;;2.63;1.13;;;12.70;99.00;;;;;;5037989;28;20022;-79
2022/06/24 11:10:52;;;;;;;4.60;1.73;;;12.60;99.20;;;;;;5050754;28;20084;-78
2022/06/24 11:13:23;;;;;;;2.65;1.60;;;12.50;99.30;;;;;;5052399;28;20032;-79
2022/06/24 11:16:00;;;;;;;5.93;1.88;;;12.50;99.40;;;;;;5036321;28;20030;-76
2022/06/24 11:18:33;;;;;;;2.28;1.58;;;12.50;99.30;;;;;;5041003;28;20051;-77
2022/06/24 11:21:05;;;;;;;2.53;1.75;;;12.40;99.50;;;;;;5040296;28;20551;-77
2022/06/24 11:23:37;;;;;;;4.90;1.70;;;12.40;99.60;;;;;;5048571;28;20048;-79
2022/06/24 11:26:18;;;;;;;3.03;1.83;;;12.30;99.70;;;;;;5050908;28;20025;-79
2022/06/24 11:28:53;;;;;;;3.80;2.00;;;12.30;99.80;;;;;;5040016;28;20088;-77
2022/06/24 11:31:21;;;;;;;3.75;1.75;;;12.30;99.90;;;;;;5031782;28;20028;-80
2022/06/24 11:33:59;;;;;;;4.70;1.17;;;12.20;99.90;;;;;;5040132;28;20025;-78
2022/06/24 11:36:27;;;;;;;3.08;1.75;;;12.10;99.90;;;;;;5041292;28;20520;-78
2022/06/24 11:39:06;;;;;;;4.47;1.67;;;12.10;99.90;;;;;;5057349;28;20367;-79
2022/06/24 11:41:53;;;;;;;3.58;1.95;;;12.00;99.90;;;;;;5040553;28;20040;-78
2022/06/24 11:44:52;;;;;;;5.28;2.38;;;11.80;99.90;;;;;;5041859;28;20108;-76
2022/06/24 11:47:38;;;;;;;1.85;1.55;;;11.70;99.90;;;;;;5007250;28;20064;-77
2022/06/24 11:50:05;;;;;;;3.10;1.58;;;11.70;99.90;;;;;;5045404;28;20033;-78
2022/06/24 11:52:49;;;;;;;2.45;1.60;;;11.60;99.90;;;;;;5033948;28;20064;-77
2022/06/24 11:55:31;;;;;;;3.80;1.55;;;11.50;99.90;;;;;;5039817;28;20098;-79
2022/06/24 11:58:00;;;;;;;3.92;1.55;;;11.40;99.90;;;;;;5047052;28;20033;-79
2022/06/24 12:00:32;;;;;;;2.83;1.70;;;11.40;99.90;;;;;;5049892;28;20040;-79
2022/06/24 12:03:01;;;;;;;2.58;1.67;;;11.30;99.90;;;;;;5047307;28;20540;-79
2022/06/24 12:05:30;;;;;;;2.83;1.42;;;11.30;99.90;;;;;;5038202;28;20120;-79
2022/06/24 12:07:59;;;;;;;3.22;1.50;;;11.20;99.90;;;;;;5050314;28;20060;-78
2022/06/24 12:10:27;;;;;;;2.80;2.15;;;11.20;99.90;;;;;;5061379;28;20471;-78
2022/06/24 12:13:08;;;;;;;2.78;2.03;;;11.10;99.90;;;;;;5044582;28;20028;-76
2022/06/24 12:15:38;;;;;;;5.60;2.13;;;11.20;99.90;;;;;;5047306;28;20036;-77
2022/06/24 12:18:21;;;;;;;2.40;1.60;;;11.10;99.90;;;;;;5045688;28;20033;-77
2022/06/24 12:21:04;;;;;;;4.05;2.00;;;11.10;99.90;;;;;;5039888;28;20033;-78
2022/06/24 12:23:38;;;;;;;3.33;1.63;;;11.00;99.90;;;;;;5031657;28;20025;-77
2022/06/24 12:26:13;;;;;;;3.00;1.98;;;10.90;99.90;;;;;;5044920;28;20087;-78
2022/06/24 12:28:41;;;;;;;3.47;2.00;;;10.80;99.90;;;;;;5041428;28;20033;-79
2022/06/24 12:31:11;;;;;;;3.15;1.83;;;10.80;99.90;;;;;;5032699;28;20721;-78
2022/06/24 12:33:56;;;;;;;3.00;1.90;;;10.70;99.90;;;;;;5051450;28;20787;-78
2022/06/24 12:36:33;;;;;;;2.38;2.08;;;10.70;99.90;;;;;;5044368;28;20025;-77
2022/06/24 12:39:06;;;;;;;4.80;2.45;;;10.70;99.90;;;;;;5044289;28;20040;-76
2022/06/24 12:41:48;;;;;;;2.92;1.80;;;10.70;99.90;;;;;;5046516;28;20056;-77
2022/06/24 12:44:16;;;;;;;3.10;1.63;;;10.70;99.90;;;;;;5048556;28;20045;-76
2022/06/24 12:52:31;;;;;;;3.25;2.03;;;10.60;99.90;;;;;;5037392;28;20473;-75
2022/06/24 12:54:59;;;;;;;3.63;1.90;;;10.40;99.90;;;;;;5030446;28;20022;-76
2022/06/24 12:57:29;;;;;;;4.05;2.20;;;10.40;99.90;;;;;;5040718;28;20432;-77
2022/06/24 12:59:56;;;;;;;4.70;2.78;;;10.40;99.90;;;;;;5031906;28;20047;-76
2022/06/24 13:02:23;;;;;;;2.40;1.65;;;10.40;99.90;;;;;;5033214;28;20083;-76
2022/06/24 13:04:51;;;;;;;3.42;2.50;;;10.40;99.90;;;;;;5036762;28;20037;-75
2022/06/24 13:07:18;;;;;;;3.10;2.10;;;10.40;99.90;;;;;;5031897;28;20476;-77
2022/06/24 13:09:45;;;;;;;3.58;2.47;;;10.40;99.90;;;;;;5029588;28;20039;-76
2022/06/24 13:12:13;;;;;;;6.68;2.83;;;10.40;99.90;;;;;;5030772;28;20039;-77
2022/06/24 13:14:41;;;;;;;4.35;2.20;;;10.30;99.90;;;;;;5033237;28;20443;-77
2022/06/24 13:17:08;;;;;;;2.95;2.10;;;10.20;99.90;;;;;;5035587;28;20072;-77